createdAt,value
2018-09-06T00:00:59.142Z,23.53
2018-09-06T00:03:39.835Z,22.00
2018-09-06T00:06:22.336Z,21.57
2018-09-06T00:09:02.813Z,21.37
2018-09-06T00:11:51.517Z,20.03
2018-09-06T00:14:32.254Z,22.80
2018-09-06T00:17:12.878Z,21.63
2018-09-06T00:19:53.437Z,24.47
2018-09-06T00:22:33.883Z,20.87
2018-09-06T00:25:14.508Z,20.43
2018-09-06T00:27:55.124Z,24.57
2018-09-06T00:30:35.675Z,23.20
2018-09-06T00:33:17.483Z,23.10
2018-09-06T00:35:58.160Z,23.70
2018-09-06T00:38:38.770Z,21.40
2018-09-06T00:41:21.795Z,20.87
2018-09-06T00:44:02.404Z,22.47
2018-09-06T00:46:42.996Z,21.37
2018-09-06T00:49:23.588Z,21.73
2018-09-06T00:52:04.203Z,21.60
2018-09-06T00:54:44.758Z,19.63
2018-09-06T00:57:25.427Z,18.53
2018-09-06T01:00:06.046Z,20.87
2018-09-06T01:02:47.492Z,23.40
2018-09-06T01:05:29.289Z,18.00
2018-09-06T01:08:09.800Z,19.73
2018-09-06T01:10:52.745Z,19.87
2018-09-06T01:13:33.304Z,19.77
2018-09-06T01:16:13.925Z,21.90
2018-09-06T01:18:55.517Z,17.87
2018-09-06T01:21:36.011Z,18.20
2018-09-06T01:24:17.488Z,20.27
2018-09-06T01:26:59.187Z,19.00
2018-09-06T01:29:39.673Z,19.57
2018-09-06T01:32:21.870Z,19.33
2018-09-06T01:35:02.457Z,19.87
2018-09-06T01:37:43.072Z,20.90
2018-09-06T01:40:23.642Z,18.37
2018-09-06T01:43:05.051Z,19.17
2018-09-06T01:45:45.566Z,21.57
2018-09-06T01:48:26.193Z,21.20
2018-09-06T01:51:06.798Z,23.60
2018-09-06T01:53:48.459Z,19.90
2018-09-06T01:56:29.364Z,16.83
2018-09-06T01:59:09.923Z,19.63
2018-09-06T02:01:51.592Z,23.57
2018-09-06T02:04:32.813Z,23.23
2018-09-06T02:07:13.412Z,17.87
2018-09-06T02:09:53.984Z,18.83
2018-09-06T02:12:34.546Z,20.63
2018-09-06T02:15:15.190Z,18.40
2018-09-06T02:44:08.384Z,19.87
2018-09-06T02:46:50.238Z,19.50
2018-09-06T02:49:35.835Z,20.13
2018-09-06T02:52:16.197Z,22.47
2018-09-06T02:54:56.796Z,18.90
2018-09-06T02:57:37.161Z,19.77
2018-09-06T03:00:23.369Z,22.13
2018-09-06T03:03:04.110Z,22.23
2018-09-06T03:05:44.510Z,22.87
2018-09-06T03:08:26.132Z,19.63
2018-09-06T03:11:12.982Z,20.43
2018-09-06T03:13:55.303Z,20.00
2018-09-06T03:16:35.732Z,23.20
2018-09-06T03:19:16.230Z,20.20
2018-09-06T03:21:56.745Z,24.80
2018-09-06T03:24:37.346Z,25.13
2018-09-06T03:27:17.809Z,20.57
2018-09-06T03:29:58.394Z,20.67
2018-09-06T03:32:38.893Z,22.03
2018-09-06T03:35:20.340Z,20.00
2018-09-06T03:38:00.766Z,20.53
2018-09-06T03:40:41.598Z,18.93
2018-09-06T03:43:24.363Z,18.20
2018-09-06T03:46:06.190Z,19.10
2018-09-06T03:48:46.585Z,23.10
2018-09-06T03:51:26.976Z,19.07
2018-09-06T03:54:07.398Z,21.43
2018-09-06T03:56:47.981Z,21.97
2018-09-06T03:59:29.012Z,26.67
2018-09-06T04:02:09.570Z,19.67
2018-09-06T04:04:51.089Z,23.73
2018-09-06T04:07:32.135Z,24.33
2018-09-06T04:10:12.629Z,19.57
2018-09-06T04:12:54.786Z,20.00
2018-09-06T04:15:35.297Z,19.63
2018-09-06T04:18:15.893Z,19.40
2018-09-06T04:20:56.528Z,21.03
2018-09-06T04:23:37.146Z,21.90
2018-09-06T04:26:17.658Z,20.80
2018-09-06T04:28:58.214Z,20.40
2018-09-06T04:31:38.829Z,24.43
2018-09-06T04:34:21.533Z,19.40
2018-09-06T04:37:02.015Z,19.93
2018-09-06T04:39:42.568Z,20.47
2018-09-06T04:42:24.860Z,18.10
2018-09-06T04:45:05.565Z,21.73
2018-09-06T04:47:46.154Z,19.53
2018-09-06T04:50:26.776Z,20.07
2018-09-06T04:53:07.235Z,18.13
2018-09-06T04:55:47.612Z,19.83
2018-09-06T04:58:28.362Z,21.57
2018-09-06T05:01:08.954Z,19.67
2018-09-06T05:03:50.508Z,25.23
2018-09-06T05:06:30.969Z,20.03
2018-09-06T05:09:11.669Z,19.00
2018-09-06T05:11:54.813Z,21.77
2018-09-06T05:14:35.362Z,22.00
2018-09-06T05:17:15.977Z,24.27
2018-09-06T05:19:56.568Z,23.10
2018-09-06T05:22:37.977Z,23.60
2018-09-06T05:25:18.557Z,28.47
2018-09-06T05:27:59.082Z,24.87
2018-09-06T05:30:39.920Z,22.80
2018-09-06T05:33:23.184Z,24.67
2018-09-06T05:36:03.693Z,24.30
2018-09-06T05:38:44.146Z,21.43
2018-09-06T05:41:25.956Z,24.03
2018-09-06T05:44:06.407Z,27.07
2018-09-06T05:46:46.816Z,23.73
2018-09-06T05:49:27.233Z,24.80
2018-09-06T05:52:07.749Z,24.00
2018-09-06T05:54:48.391Z,22.00
2018-09-06T05:57:30.042Z,25.53
2018-09-06T06:00:15.702Z,20.77
2018-09-06T06:02:57.888Z,21.60
2018-09-06T06:05:38.268Z,20.43
2018-09-06T06:08:36.976Z,20.87
2018-09-06T06:11:18.300Z,22.50
2018-09-06T06:14:29.209Z,25.13
2018-09-06T06:17:09.849Z,24.97
2018-09-06T06:19:53.147Z,25.20
2018-09-06T06:22:33.748Z,24.80
2018-09-06T06:25:15.053Z,26.67
2018-09-06T06:27:57.264Z,26.93
2018-09-06T06:30:37.845Z,26.07
2018-09-06T06:33:18.511Z,33.80
2018-09-06T06:35:59.432Z,30.77
2018-09-06T06:38:40.125Z,31.23
2018-09-06T06:41:23.926Z,29.73
2018-09-06T06:44:04.702Z,30.70
2018-09-06T06:46:45.431Z,28.53
2018-09-06T06:49:26.661Z,31.73
2018-09-06T06:52:08.237Z,32.17
2018-09-06T06:54:49.002Z,34.37
2018-09-06T06:57:29.522Z,30.03
2018-09-06T07:00:10.208Z,30.33
2018-09-06T07:02:53.950Z,31.67
2018-09-06T07:05:34.579Z,31.73
2018-09-06T07:08:15.023Z,30.40
2018-09-06T07:10:56.797Z,33.97
2018-09-06T07:13:37.332Z,32.07
2018-09-06T07:16:17.923Z,29.13
2018-09-06T07:18:58.493Z,30.97
2018-09-06T07:21:39.273Z,44.63
2018-09-06T07:24:21.149Z,91.27
2018-09-06T07:27:01.737Z,55.17
2018-09-06T07:29:42.219Z,41.57
2018-09-06T07:32:25.466Z,40.07
2018-09-06T07:35:06.761Z,35.13
2018-09-06T07:37:47.172Z,31.67
2018-09-06T07:40:27.788Z,33.57
2018-09-06T07:43:08.364Z,31.50
2018-09-06T07:45:48.802Z,35.57
2018-09-06T07:48:29.401Z,32.63
2018-09-06T07:51:10.111Z,28.43
2018-09-06T07:53:54.026Z,27.83
2018-09-06T07:56:34.409Z,28.43
2018-09-06T07:59:15.041Z,28.27
2018-09-06T08:01:56.686Z,29.17
2018-09-06T08:04:37.261Z,26.50
2018-09-06T08:07:17.861Z,27.10
2018-09-06T08:09:58.292Z,29.00
2018-09-06T08:12:38.905Z,33.07
2018-09-06T08:15:23.901Z,31.33
2018-09-06T08:18:04.620Z,31.53
2018-09-06T08:20:45.294Z,31.97
2018-09-06T08:23:26.695Z,29.57
2018-09-06T08:26:07.327Z,28.60
2018-09-06T08:28:47.883Z,30.27
2018-09-06T08:31:28.579Z,29.37
2018-09-06T08:34:09.212Z,32.33
2018-09-06T08:36:50.974Z,33.80
2018-09-06T08:39:31.524Z,33.27
2018-09-06T08:42:12.186Z,29.77
2018-09-06T08:44:55.465Z,33.30
2018-09-06T08:47:35.942Z,37.33
2018-09-06T08:50:16.530Z,34.57
2018-09-06T08:52:57.408Z,30.17
2018-09-06T08:55:37.819Z,31.50
2018-09-06T08:58:18.523Z,27.27
2018-09-06T09:01:04.901Z,26.47
2018-09-06T09:03:45.386Z,26.23
2018-09-06T09:06:26.870Z,27.53
2018-09-06T09:09:15.304Z,24.77
2018-09-06T09:11:56.833Z,27.67
2018-09-06T09:14:37.909Z,26.77
2018-09-06T09:17:18.396Z,34.17
2018-09-06T09:19:58.996Z,41.63
2018-09-06T09:22:39.473Z,31.30
2018-09-06T09:25:21.023Z,28.40
2018-09-06T09:28:01.537Z,28.97
2018-09-06T09:30:42.826Z,26.97
2018-09-06T09:33:25.546Z,29.63
2018-09-06T09:36:06.231Z,35.57
2018-09-06T09:38:47.735Z,27.80
2018-09-06T09:41:31.333Z,25.63
2018-09-06T09:44:11.947Z,22.80
2018-09-06T09:49:35.193Z,24.00
2018-09-06T09:52:15.987Z,24.10
2018-09-06T09:54:56.557Z,22.57
2018-09-06T09:57:37.105Z,22.00
2018-09-06T10:00:21.912Z,21.67
2018-09-06T10:03:07.532Z,22.83
2018-09-06T10:05:51.063Z,23.13
2018-09-06T10:08:36.929Z,17.17
2018-09-06T10:11:17.407Z,21.03
2018-09-06T10:13:58.013Z,18.50
2018-09-06T10:16:38.532Z,20.47
2018-09-06T10:19:20.919Z,29.87
2018-09-06T10:22:01.381Z,23.57
2018-09-06T10:24:42.135Z,23.63
2018-09-06T10:27:25.338Z,17.93
2018-09-06T10:30:05.996Z,17.57
2018-09-06T10:32:46.601Z,19.17
2018-09-06T10:35:27.245Z,15.57
2018-09-06T10:38:07.845Z,18.13
2018-09-06T10:40:48.425Z,19.83
2018-09-06T10:43:28.929Z,20.80
2018-09-06T10:46:09.520Z,22.27
2018-09-06T10:48:51.817Z,17.43
2018-09-06T10:51:33.173Z,21.47
2018-09-06T10:54:13.599Z,16.50
2018-09-06T10:56:55.341Z,13.70
2018-09-06T10:59:35.863Z,14.60
2018-09-06T11:02:16.332Z,17.10
2018-09-06T11:04:56.801Z,13.90
2018-09-06T11:07:37.247Z,14.87
2018-09-06T11:10:17.848Z,17.30
2018-09-06T11:12:58.592Z,13.73
2018-09-06T11:15:39.396Z,12.27
2018-09-06T11:18:21.817Z,11.20
2018-09-06T11:21:02.486Z,14.50
2018-09-06T11:23:44.101Z,18.17
2018-09-06T11:26:25.870Z,14.37
2018-09-06T11:29:06.526Z,17.30
2018-09-06T11:31:47.188Z,13.83
2018-09-06T11:34:27.837Z,19.70
2018-09-06T11:37:08.497Z,15.10
2018-09-06T11:39:48.959Z,14.07
2018-09-06T11:42:29.512Z,15.57
2018-09-06T11:45:10.119Z,22.83
2018-09-06T11:47:51.795Z,14.07
2018-09-06T11:50:32.246Z,24.90
2018-09-06T11:53:12.681Z,19.23
2018-09-06T11:55:55.997Z,25.10
2018-09-06T11:58:37.042Z,15.90
2018-09-06T12:01:17.882Z,20.87
2018-09-06T12:03:58.809Z,15.60
2018-09-06T12:06:40.361Z,17.90
2018-09-06T12:09:24.237Z,16.23
2018-09-06T12:12:05.551Z,19.00
2018-09-06T12:14:46.229Z,20.07
2018-09-06T12:17:27.462Z,18.37
2018-09-06T12:20:09.111Z,18.57
2018-09-06T12:22:51.918Z,18.60
2018-09-06T12:25:32.899Z,28.13
2018-09-06T12:28:14.497Z,19.00
2018-09-06T12:30:57.138Z,20.43
2018-09-06T12:33:38.007Z,16.57
2018-09-06T12:36:18.988Z,16.93
2018-09-06T12:39:00.404Z,18.53
2018-09-06T12:41:41.315Z,18.17
2018-09-06T12:44:26.049Z,16.70
2018-09-06T12:47:07.053Z,17.40
2018-09-06T12:49:48.153Z,18.57
2018-09-06T12:52:30.303Z,15.07
2018-09-06T12:55:11.864Z,15.83
2018-09-06T12:57:55.627Z,16.87
2018-09-06T13:00:36.707Z,17.73
2018-09-06T13:03:18.170Z,17.37
2018-09-06T13:05:59.179Z,19.50
2018-09-06T13:08:40.212Z,18.83
2018-09-06T13:11:23.430Z,20.23
2018-09-06T13:14:04.593Z,16.77
2018-09-06T13:16:45.294Z,16.73
2018-09-06T13:19:26.748Z,16.63
2018-09-06T13:22:07.373Z,16.47
2018-09-06T13:24:47.846Z,16.97
2018-09-06T13:27:28.580Z,15.47
2018-09-06T13:30:09.309Z,16.30
2018-09-06T13:32:53.338Z,15.30
2018-09-06T13:35:33.965Z,15.93
2018-09-06T13:38:14.630Z,17.47
2018-09-06T13:40:56.241Z,16.73
2018-09-06T13:43:36.838Z,17.73
2018-09-06T13:46:17.421Z,19.00
2018-09-06T13:48:58.167Z,15.93
2018-09-06T13:51:38.759Z,15.23
2018-09-06T13:54:19.524Z,16.73
2018-09-06T13:57:00.030Z,14.00
2018-09-06T13:59:40.605Z,13.43
2018-09-06T14:02:22.673Z,14.70
2018-09-06T14:05:03.637Z,15.43
2018-09-06T14:07:44.214Z,15.60
2018-09-06T14:10:27.255Z,15.87
2018-09-06T14:13:07.789Z,15.03
2018-09-06T14:15:48.526Z,14.00
2018-09-06T14:18:29.143Z,17.13
2018-09-06T14:21:09.782Z,18.20
2018-09-06T14:23:57.004Z,18.80
2018-09-06T14:26:38.335Z,15.37
2018-09-06T14:29:18.975Z,18.30
2018-09-06T14:31:59.896Z,15.87
2018-09-06T14:34:40.615Z,17.07
2018-09-06T14:37:22.291Z,15.83
2018-09-06T14:40:03.157Z,16.20
2018-09-06T14:42:43.963Z,16.10
2018-09-06T14:45:27.930Z,14.40
2018-09-06T14:48:08.638Z,18.07
2018-09-06T14:50:50.188Z,15.30
2018-09-06T14:53:48.543Z,14.30
2018-09-06T14:56:28.900Z,16.30
2018-09-06T14:59:09.433Z,26.27
2018-09-06T15:01:50.084Z,16.13
2018-09-06T15:04:30.752Z,17.27
2018-09-06T15:07:11.926Z,19.67
2018-09-06T15:09:55.134Z,16.10
2018-09-06T15:12:35.816Z,15.97
2018-09-06T15:15:16.420Z,15.27
2018-09-06T15:17:58.178Z,15.80
2018-09-06T15:20:38.761Z,17.93
2018-09-06T15:23:22.570Z,15.90
2018-09-06T15:26:03.153Z,16.40
2018-09-06T15:28:43.770Z,15.33
2018-09-06T15:31:27.362Z,17.00
2018-09-06T15:34:07.933Z,17.47
2018-09-06T15:36:48.884Z,17.33
2018-09-06T15:39:29.349Z,16.83
2018-09-06T15:42:09.889Z,19.63
2018-09-06T15:44:50.448Z,16.57
2018-09-06T15:47:31.013Z,23.77
2018-09-06T15:50:11.529Z,17.27
2018-09-06T15:52:56.717Z,14.50
2018-09-06T15:55:37.329Z,19.67
2018-09-06T15:58:17.932Z,15.90
2018-09-06T16:00:58.600Z,17.10
2018-09-06T16:03:39.505Z,16.90
2018-09-06T16:06:20.530Z,21.70
2018-09-06T16:09:01.043Z,16.77
2018-09-06T16:11:41.635Z,18.60
2018-09-06T16:14:23.949Z,17.47
2018-09-06T16:17:04.521Z,16.07
2018-09-06T16:19:45.239Z,19.80
2018-09-06T16:22:27.541Z,17.77
2018-09-06T16:25:08.033Z,16.47
2018-09-06T16:27:48.671Z,22.30
2018-09-06T16:30:29.391Z,18.73
2018-09-06T16:33:09.942Z,18.87
2018-09-06T16:35:50.611Z,18.87
2018-09-06T16:38:31.219Z,18.70
2018-09-06T16:41:11.827Z,16.50
2018-09-06T16:43:53.620Z,19.23
2018-09-06T16:46:34.041Z,19.40
2018-09-06T16:49:14.664Z,20.90
2018-09-06T16:51:56.609Z,21.77
2018-09-06T16:54:37.208Z,19.27
2018-09-06T16:57:17.794Z,17.17
2018-09-06T16:59:58.609Z,20.47
2018-09-06T17:02:39.191Z,19.33
2018-09-06T17:05:19.804Z,20.43
2018-09-06T17:08:00.429Z,20.13
2018-09-06T17:10:41.034Z,19.50
2018-09-06T17:13:23.058Z,20.70
2018-09-06T17:16:03.636Z,25.60
2018-09-06T17:18:44.249Z,28.33
2018-09-06T17:21:26.913Z,30.97
2018-09-06T17:24:07.489Z,40.80
2018-09-06T17:26:48.017Z,30.40
2018-09-06T17:29:29.154Z,25.27
2018-09-06T17:32:10.558Z,24.60
2018-09-06T17:34:57.212Z,25.37
2018-09-06T17:37:37.804Z,24.00
2018-09-06T17:40:18.441Z,23.67
2018-09-06T17:42:59.678Z,25.90
2018-09-06T17:45:40.313Z,23.53
2018-09-06T17:48:21.111Z,22.50
2018-09-06T17:51:02.678Z,23.83
2018-09-06T17:53:43.405Z,25.47
2018-09-06T17:56:26.442Z,23.10
2018-09-06T17:59:07.820Z,23.60
2018-09-06T18:01:49.177Z,22.27
2018-09-06T18:04:32.575Z,23.83
2018-09-06T18:07:14.368Z,24.27
2018-09-06T18:09:59.929Z,26.57
2018-09-06T18:12:41.582Z,27.47
2018-09-06T18:15:25.186Z,32.17
2018-09-06T18:18:08.970Z,32.73
2018-09-06T18:20:50.841Z,30.70
2018-09-06T18:23:31.602Z,29.10
2018-09-06T18:26:12.997Z,30.43
2018-09-06T18:28:59.135Z,29.17
2018-09-06T18:31:39.939Z,31.77
2018-09-06T18:34:21.154Z,30.83
2018-09-06T18:37:01.703Z,26.93
2018-09-06T18:39:42.349Z,28.53
2018-09-06T18:42:24.093Z,30.50
2018-09-06T18:45:04.884Z,28.47
2018-09-06T18:47:45.376Z,28.80
2018-09-06T18:50:28.214Z,28.43
2018-09-06T18:53:08.781Z,27.47
2018-09-06T18:55:49.949Z,31.10
2018-09-06T18:58:30.539Z,27.40
2018-09-06T19:01:11.274Z,23.73
2018-09-06T19:03:52.356Z,29.63
2018-09-06T19:06:32.837Z,29.67
2018-09-06T19:09:13.890Z,36.53
2018-09-06T19:11:57.422Z,31.20
2018-09-06T19:14:38.013Z,25.57
2018-09-06T19:17:18.764Z,26.73
2018-09-06T19:20:01.219Z,27.53
2018-09-06T19:22:42.018Z,29.50
2018-09-06T19:25:24.352Z,27.97
2018-09-06T19:28:05.757Z,31.13
2018-09-06T19:30:46.204Z,31.20
2018-09-06T19:33:28.683Z,34.13
2018-09-06T19:36:09.252Z,31.17
2018-09-06T19:38:49.954Z,29.27
2018-09-06T19:41:30.678Z,28.97
2018-09-06T19:44:30.453Z,26.80
2018-09-06T19:47:11.117Z,29.63
2018-09-06T19:49:51.713Z,26.03
2018-09-06T19:52:32.337Z,28.23
2018-09-06T19:55:13.003Z,25.50
2018-09-06T19:57:54.709Z,26.80
2018-09-06T20:00:35.326Z,24.17
2018-09-06T20:03:16.329Z,23.87
2018-09-06T20:05:58.939Z,25.33
2018-09-06T20:08:39.416Z,31.30
2018-09-06T20:11:20.227Z,30.47
2018-09-06T20:14:01.157Z,27.07
2018-09-06T20:16:41.732Z,27.47
2018-09-06T20:19:22.408Z,24.93
2018-09-06T20:22:03.180Z,25.63
2018-09-06T20:24:43.645Z,23.67
2018-09-06T20:27:25.671Z,22.90
2018-09-06T20:30:06.455Z,21.63
2018-09-06T20:32:47.052Z,23.00
2018-09-06T20:35:29.180Z,24.87
2018-09-06T20:38:10.154Z,26.63
2018-09-06T20:40:50.821Z,27.20
2018-09-06T20:43:31.470Z,24.63
2018-09-06T20:46:12.115Z,23.97
2018-09-06T20:48:52.629Z,24.97
2018-09-06T20:51:33.272Z,23.63
2018-09-06T20:54:13.900Z,23.73
2018-09-06T20:56:55.456Z,23.10
2018-09-06T20:59:36.559Z,25.60
2018-09-06T21:02:23.178Z,24.40
2018-09-06T21:05:03.882Z,29.37
2018-09-06T21:07:44.366Z,25.77
2018-09-06T21:10:26.508Z,26.13
2018-09-06T21:13:07.094Z,23.80
2018-09-06T21:15:47.818Z,24.83
2018-09-06T21:18:31.075Z,29.40
2018-09-06T21:21:11.746Z,25.57
2018-09-06T21:23:52.417Z,26.10
2018-09-06T21:26:33.170Z,29.13
2018-09-06T21:29:13.793Z,31.17
2018-09-06T21:31:56.132Z,27.90
2018-09-06T21:34:37.489Z,28.53
2018-09-06T21:37:18.109Z,27.50
2018-09-06T21:39:59.760Z,27.83
2018-09-06T21:42:40.198Z,28.20
2018-09-06T21:45:20.744Z,34.43
2018-09-06T21:48:01.736Z,31.33
2018-09-06T21:50:42.224Z,34.67
2018-09-06T21:53:22.853Z,28.70
2018-09-06T21:56:03.280Z,28.77
2018-09-06T21:58:43.782Z,35.00
2018-09-06T22:01:25.888Z,32.17
2018-09-06T22:04:07.565Z,35.00
2018-09-06T22:06:48.256Z,35.17
2018-09-06T22:09:30.425Z,31.83
2018-09-06T22:12:16.881Z,32.53
2018-09-06T22:15:00.070Z,34.57
2018-09-06T22:17:40.725Z,30.73
2018-09-06T22:20:21.341Z,34.30
2018-09-06T22:23:01.762Z,31.10
2018-09-06T22:25:42.347Z,33.57
2018-09-06T22:28:22.854Z,32.57
2018-09-06T22:31:03.441Z,38.33
2018-09-06T22:33:46.989Z,35.00
2018-09-06T22:36:31.158Z,37.50
2018-09-06T22:39:11.776Z,35.73
2018-09-06T22:41:52.410Z,36.13
2018-09-06T22:44:32.977Z,39.43
2018-09-06T22:47:13.760Z,36.13
2018-09-06T22:49:55.814Z,35.83
2018-09-06T22:52:36.442Z,36.03
2018-09-06T22:55:17.013Z,33.47
2018-09-06T22:57:59.866Z,34.77
2018-09-06T23:00:40.337Z,32.37
2018-09-06T23:03:26.381Z,32.07
2018-09-06T23:06:07.300Z,29.03
2018-09-06T23:08:47.734Z,35.87
2018-09-06T23:11:29.913Z,31.93
2018-09-06T23:14:10.678Z,31.33
2018-09-06T23:16:51.257Z,31.50
2018-09-06T23:19:31.687Z,36.30
2018-09-06T23:22:12.233Z,34.87
2018-09-06T23:24:52.844Z,34.33
2018-09-06T23:27:33.416Z,39.17
2018-09-06T23:30:13.996Z,35.13
2018-09-06T23:32:55.805Z,37.03
2018-09-06T23:35:36.330Z,37.30
2018-09-06T23:38:18.692Z,33.40
2018-09-06T23:41:00.501Z,35.43
2018-09-06T23:43:41.085Z,35.23
2018-09-06T23:46:21.704Z,32.97
2018-09-06T23:49:02.334Z,32.93
2018-09-06T23:51:43.534Z,37.03
2018-09-06T23:54:26.258Z,34.10
2018-09-06T23:57:06.809Z,34.13
2018-09-06T23:59:47.253Z,33.30
